Time;durP1;ratioP1;P1;durP2;ratioP2;P2;SDS_P1;SDS_P2;PMS_P1;PMS_P2;Temp;Humidity;BMP_temperature;BMP_pressure;BME280_temperature;BME280_humidity;BME280_pressure;Samples;Min_cycle;Max_cycle;Signal;HPM_P1;HPM_P2
2021/06/11 00:00:52;;;;;;;13.33;12.07;;;22.40;99.90;;;;;;4956305;28;20231;-62
2021/06/11 00:03:18;;;;;;;12.87;11.67;;;22.50;99.90;;;;;;4962793;28;20187;-63
2021/06/11 00:05:44;;;;;;;12.97;11.73;;;22.30;99.90;;;;;;4961599;28;20824;-65
2021/06/11 00:08:11;;;;;;;12.17;11.07;;;22.20;99.90;;;;;;4972796;23;20226;-62
2021/06/11 00:10:37;;;;;;;12.10;11.00;;;22.00;99.90;;;;;;4986313;23;20242;-64
2021/06/11 00:13:04;;;;;;;14.07;12.57;;;22.30;99.90;;;;;;4981048;22;20505;-64
2021/06/11 00:15:30;;;;;;;13.83;12.53;;;22.20;99.90;;;;;;4942769;29;20436;-64
2021/06/11 00:17:57;;;;;;;12.77;11.53;;;22.00;99.90;;;;;;4944555;29;20926;-63
2021/06/11 00:20:24;;;;;;;13.30;12.03;;;21.80;99.90;;;;;;4942239;28;20809;-64
2021/06/11 00:22:50;;;;;;;14.80;13.40;;;21.70;99.90;;;;;;4985368;22;20801;-63
2021/06/11 00:25:22;;;;;;;13.00;11.80;;;21.50;99.90;;;;;;4958402;28;20553;-64
2021/06/11 00:27:47;;;;;;;20.20;12.83;;;21.90;99.90;;;;;;4961470;28;20526;-64
2021/06/11 00:30:14;;;;;;;13.33;12.03;;;21.80;99.90;;;;;;4956678;28;20578;-62
2021/06/11 00:32:39;;;;;;;13.33;12.13;;;21.80;99.90;;;;;;4955700;28;20613;-63
2021/06/11 00:35:06;;;;;;;12.40;11.30;;;21.50;99.90;;;;;;4943047;28;20561;-63
2021/06/11 00:37:32;;;;;;;12.23;11.13;;;21.80;99.90;;;;;;4944117;28;20192;-63
2021/06/11 00:39:58;;;;;;;13.57;12.27;;;21.80;99.90;;;;;;4998343;23;20508;-63
2021/06/11 00:42:25;;;;;;;13.43;12.03;;;21.90;99.90;;;;;;4935028;29;20219;-61
2021/06/11 00:44:51;;;;;;;17.83;12.43;;;22.00;99.90;;;;;;4938294;28;20850;-63
2021/06/11 00:47:17;;;;;;;12.80;11.50;;;22.10;99.90;;;;;;4970754;23;20552;-63
2021/06/11 00:49:44;;;;;;;12.73;11.63;;;22.00;99.90;;;;;;4940683;28;20555;-63
2021/06/11 00:52:10;;;;;;;12.87;11.67;;;22.30;99.90;;;;;;4954319;28;20269;-65
2021/06/11 00:54:35;;;;;;;12.23;11.03;;;22.10;99.90;;;;;;4940807;29;20438;-63
2021/06/11 00:57:01;;;;;;;12.03;11.03;;;22.10;99.90;;;;;;4944155;28;20220;-62
2021/06/11 01:01:58;;;;;;;14.27;12.80;;;22.30;99.90;;;;;;4930263;28;20819;-64
2021/06/11 01:06:58;;;;;;;13.10;11.73;;;22.50;99.90;;;;;;4940526;28;20219;-65
2021/06/11 01:09:31;;;;;;;11.80;10.80;;;22.50;99.90;;;;;;4944556;29;20438;-64
2021/06/11 01:11:58;;;;;;;13.10;11.90;;;22.50;99.90;;;;;;4945952;28;20203;-66
2021/06/11 01:14:25;;;;;;;14.63;13.13;;;22.40;99.90;;;;;;4972027;23;20529;-64
2021/06/11 01:16:51;;;;;;;13.00;11.80;;;22.40;99.90;;;;;;4940714;28;20505;-64
2021/06/11 01:19:19;;;;;;;12.33;11.20;;;22.50;99.90;;;;;;4939690;28;20443;-63
2021/06/11 01:21:59;;;;;;;12.23;11.07;;;22.60;99.90;;;;;;4943640;28;20966;-63
2021/06/11 01:24:32;;;;;;;13.80;12.60;;;22.60;99.90;;;;;;4947555;28;20946;-65
2021/06/11 01:26:59;;;;;;;13.00;11.87;;;22.50;99.90;;;;;;4955758;28;20931;-64
2021/06/11 01:29:27;;;;;;;13.73;12.00;;;22.10;99.90;;;;;;4945263;28;20481;-63
2021/06/11 01:31:56;;;;;;;13.13;11.83;;;21.80;99.90;;;;;;4944971;28;21282;-63
2021/06/11 01:34:37;;;;;;;13.87;12.47;;;21.60;99.90;;;;;;4954021;28;20456;-63
2021/06/11 01:37:13;;;;;;;13.13;11.83;;;21.40;99.90;;;;;;4946395;28;20826;-63
2021/06/11 01:39:40;;;;;;;13.17;11.97;;;21.50;99.90;;;;;;4943461;28;20485;-61
2021/06/11 01:42:07;;;;;;;13.37;12.10;;;21.70;99.90;;;;;;4955114;28;20492;-65
2021/06/11 01:44:37;;;;;;;13.57;12.37;;;21.90;99.90;;;;;;4942498;28;20435;-63
2021/06/11 01:47:05;;;;;;;14.47;13.07;;;21.60;99.90;;;;;;4945820;28;20431;-64
2021/06/11 01:49:31;;;;;;;13.20;11.90;;;21.50;99.90;;;;;;4959323;28;20430;-65
2021/06/11 01:51:59;;;;;;;17.27;12.70;;;21.70;99.90;;;;;;4941725;28;20560;-64
2021/06/11 01:54:29;;;;;;;13.07;11.87;;;21.90;99.90;;;;;;4946748;28;20518;-65
2021/06/11 01:56:56;;;;;;;15.03;13.50;;;22.00;99.90;;;;;;4959648;28;21009;-63
2021/06/11 01:59:21;;;;;;;12.37;11.27;;;22.00;99.90;;;;;;4945983;28;20444;-63
2021/06/11 02:01:49;;;;;;;13.80;12.60;;;22.10;99.90;;;;;;4944028;28;20470;-63
2021/06/11 02:04:14;;;;;;;14.50;13.20;;;22.00;99.90;;;;;;4940419;28;20270;-62
2021/06/11 02:06:41;;;;;;;14.70;13.30;;;22.00;99.90;;;;;;4942861;28;20531;-62
2021/06/11 02:09:08;;;;;;;12.17;11.07;;;22.10;99.90;;;;;;4956407;28;20698;-63
2021/06/11 02:11:36;;;;;;;13.13;11.93;;;22.20;99.90;;;;;;4931885;28;20455;-63
2021/06/11 02:14:02;;;;;;;12.73;11.53;;;22.10;99.90;;;;;;4943959;28;20427;-62
2021/06/11 02:16:30;;;;;;;14.70;13.23;;;22.00;99.90;;;;;;4940557;28;20463;-63
2021/06/11 02:19:03;;;;;;;12.90;11.70;;;22.10;99.90;;;;;;4943113;28;20791;-63
2021/06/11 02:21:30;;;;;;;13.77;12.47;;;22.10;99.90;;;;;;4945968;28;20549;-62
2021/06/11 02:23:57;;;;;;;17.27;12.27;;;22.10;99.90;;;;;;4944182;28;20442;-63
2021/06/11 02:26:29;;;;;;;14.30;13.00;;;22.20;99.90;;;;;;4939904;28;20539;-63
2021/06/11 02:28:54;;;;;;;12.90;11.70;;;22.20;99.90;;;;;;4944168;28;20447;-63
2021/06/11 02:31:21;;;;;;;13.73;12.37;;;22.20;99.90;;;;;;4941918;28;20469;-62
2021/06/11 02:33:47;;;;;;;13.30;12.03;;;22.20;99.90;;;;;;4943452;28;20207;-66
2021/06/11 02:36:14;;;;;;;14.20;12.80;;;21.90;99.90;;;;;;4944299;28;21195;-63
2021/06/11 02:38:40;;;;;;;13.77;12.53;;;22.00;99.90;;;;;;4944546;28;20194;-63
2021/06/11 02:41:07;;;;;;;13.20;12.00;;;22.00;99.90;;;;;;4941440;28;21002;-63
2021/06/11 02:43:37;;;;;;;13.40;12.10;;;22.10;99.90;;;;;;4943744;28;20775;-66
2021/06/11 02:46:18;;;;;;;13.43;12.23;;;22.00;99.90;;;;;;4939217;28;20439;-62
2021/06/11 02:48:55;;;;;;;15.30;12.70;;;21.90;99.90;;;;;;4941605;28;20441;-64
2021/06/11 02:51:31;;;;;;;13.17;11.97;;;21.70;99.90;;;;;;4945174;28;20451;-64
2021/06/11 02:54:00;;;;;;;13.80;12.50;;;21.80;99.90;;;;;;4942005;28;20447;-64
2021/06/11 02:56:41;;;;;;;13.43;12.17;;;21.60;99.90;;;;;;4941192;28;20442;-61
2021/06/11 02:59:22;;;;;;;13.77;12.43;;;21.40;99.90;;;;;;4946745;28;20426;-66
2021/06/11 03:01:54;;;;;;;14.20;12.83;;;21.20;99.90;;;;;;4943074;28;20474;-65
2021/06/11 03:04:23;;;;;;;13.60;12.30;;;21.00;99.90;;;;;;4942373;28;20435;-64
2021/06/11 03:06:49;;;;;;;14.30;12.97;;;20.80;99.90;;;;;;4941029;28;20470;-66
2021/06/11 03:09:19;;;;;;;14.70;13.30;;;20.70;99.90;;;;;;4956121;28;20455;-64
2021/06/11 03:11:46;;;;;;;13.63;12.20;;;20.70;99.90;;;;;;4939000;28;20487;-68
2021/06/11 03:14:13;;;;;;;12.53;11.33;;;21.00;99.90;;;;;;4941371;28;20971;-65
2021/06/11 03:16:43;;;;;;;13.50;12.10;;;21.10;99.90;;;;;;4941036;28;20494;-64
2021/06/11 03:19:11;;;;;;;12.97;11.73;;;21.30;99.90;;;;;;4943503;28;21148;-64
2021/06/11 03:21:46;;;;;;;12.43;11.23;;;21.50;99.90;;;;;;4940590;28;20466;-65
2021/06/11 03:24:19;;;;;;;13.27;12.07;;;21.50;99.90;;;;;;4957727;28;20469;-66
2021/06/11 03:26:52;;;;;;;12.50;11.23;;;21.60;99.90;;;;;;4942041;28;20550;-63
2021/06/11 03:29:35;;;;;;;12.73;11.53;;;21.60;99.90;;;;;;4943977;28;20466;-63
2021/06/11 03:32:05;;;;;;;13.20;11.97;;;21.50;99.90;;;;;;4942198;28;20450;-63
2021/06/11 03:34:43;;;;;;;14.20;11.47;;;21.30;99.90;;;;;;4946730;28;20443;-65
2021/06/11 03:37:19;;;;;;;14.13;12.63;;;21.40;99.90;;;;;;4958028;28;20431;-67
2021/06/11 03:39:52;;;;;;;13.03;11.93;;;21.30;99.90;;;;;;4945410;28;21040;-66
2021/06/11 03:42:19;;;;;;;13.83;12.50;;;21.00;99.90;;;;;;4944096;28;20594;-66
2021/06/11 03:44:51;;;;;;;14.37;12.93;;;20.70;99.90;;;;;;4951064;28;20435;-66
2021/06/11 03:47:19;;;;;;;14.50;12.70;;;20.40;99.90;;;;;;4958301;28;20434;-65
2021/06/11 03:49:49;;;;;;;13.40;12.07;;;20.70;99.90;;;;;;4948757;28;20874;-70
2021/06/11 03:52:24;;;;;;;14.20;12.67;;;21.00;99.90;;;;;;4944337;28;21023;-65
2021/06/11 03:54:51;;;;;;;14.67;13.17;;;21.20;99.90;;;;;;4962427;28;20466;-64
2021/06/11 03:57:19;;;;;;;13.70;12.37;;;20.90;99.90;;;;;;4946057;28;20471;-65
2021/06/11 03:59:48;;;;;;;14.03;12.53;;;20.80;99.90;;;;;;4962698;28;20601;-66
2021/06/11 04:02:15;;;;;;;18.47;13.00;;;20.80;99.90;;;;;;4945377;28;20479;-66
2021/06/11 04:04:41;;;;;;;14.30;12.90;;;20.60;99.90;;;;;;4949150;28;20442;-67
2021/06/11 04:07:16;;;;;;;15.07;13.57;;;20.50;99.90;;;;;;4945114;28;20846;-66
2021/06/11 04:09:52;;;;;;;14.20;12.80;;;20.60;99.90;;;;;;4979941;22;20257;-65
2021/06/11 04:12:24;;;;;;;14.57;13.17;;;20.80;99.90;;;;;;4954993;28;20470;-65
2021/06/11 04:14:53;;;;;;;15.50;13.90;;;21.00;99.90;;;;;;4987412;23;20972;-66
2021/06/11 04:17:25;;;;;;;13.67;12.30;;;20.70;99.90;;;;;;4972936;28;20460;-66
2021/06/11 04:19:56;;;;;;;14.60;13.20;;;20.70;99.90;;;;;;4971471;28;20808;-66
2021/06/11 04:22:25;;;;;;;14.80;13.17;;;20.80;99.90;;;;;;4969110;28;20470;-65
2021/06/11 04:24:52;;;;;;;14.27;12.87;;;20.60;99.90;;;;;;4973974;28;20455;-64
2021/06/11 04:27:19;;;;;;;15.33;13.20;;;20.70;99.90;;;;;;4979170;28;20484;-64
2021/06/11 04:29:48;;;;;;;13.83;12.43;;;20.80;99.90;;;;;;4999292;22;21003;-70
2021/06/11 04:32:14;;;;;;;14.13;12.73;;;21.00;99.90;;;;;;4959868;28;20466;-68
2021/06/11 04:37:09;;;;;;;14.47;13.13;;;20.90;99.90;;;;;;4924349;29;20479;-64
2021/06/11 04:39:37;;;;;;;14.80;13.03;;;20.70;99.90;;;;;;4930988;29;20442;-64
2021/06/11 04:42:03;;;;;;;16.10;13.30;;;20.70;99.90;;;;;;4978764;22;20458;-72
2021/06/11 04:44:29;;;;;;;14.23;12.73;;;20.80;99.90;;;;;;4959951;28;20446;-65
2021/06/11 04:46:55;;;;;;;15.10;13.50;;;20.80;99.90;;;;;;4944671;28;20844;-64
2021/06/11 04:49:21;;;;;;;14.07;12.60;;;20.90;99.90;;;;;;4963807;28;20217;-64
2021/06/11 04:51:46;;;;;;;14.07;12.77;;;20.60;99.90;;;;;;4960715;28;20221;-67
2021/06/11 04:54:12;;;;;;;16.17;12.43;;;20.80;99.90;;;;;;4956256;28;20277;-65
2021/06/11 04:56:40;;;;;;;14.93;13.47;;;21.00;99.90;;;;;;4978361;22;20281;-66
2021/06/11 04:59:05;;;;;;;24.80;14.20;;;20.70;99.90;;;;;;4962115;23;20318;-64
2021/06/11 05:01:31;;;;;;;14.20;12.70;;;20.90;99.90;;;;;;4943410;28;20924;-66
2021/06/11 05:03:57;;;;;;;15.40;13.83;;;20.80;99.90;;;;;;4960460;28;20203;-64
2021/06/11 05:06:23;;;;;;;15.07;13.60;;;20.70;99.90;;;;;;4943833;28;20211;-66
2021/06/11 05:08:49;;;;;;;14.70;13.30;;;20.50;99.90;;;;;;4942975;28;20206;-65
2021/06/11 05:11:14;;;;;;;14.30;12.90;;;20.20;99.90;;;;;;4945582;28;20457;-65
2021/06/11 05:13:40;;;;;;;15.40;13.90;;;20.50;99.90;;;;;;4942957;28;20187;-64
2021/06/11 05:16:06;;;;;;;15.37;13.87;;;20.30;99.90;;;;;;4942436;29;20191;-63
2021/06/11 05:18:32;;;;;;;15.80;14.10;;;20.70;99.90;;;;;;4944266;28;20243;-65
2021/06/11 05:21:02;;;;;;;14.87;13.30;;;20.50;99.90;;;;;;4944963;28;20215;-64
2021/06/11 05:23:28;;;;;;;15.20;13.70;;;20.60;99.90;;;;;;4944436;28;20438;-64
2021/06/11 05:25:54;;;;;;;18.30;14.10;;;20.70;99.90;;;;;;4945460;28;20537;-64
2021/06/11 05:28:22;;;;;;;15.50;14.10;;;20.40;99.90;;;;;;4941661;28;20198;-64
2021/06/11 05:30:48;;;;;;;15.93;14.43;;;20.30;99.90;;;;;;4983280;22;20565;-65
2021/06/11 05:33:14;;;;;;;14.83;13.30;;;20.40;99.90;;;;;;4943779;29;20458;-65
2021/06/11 05:35:40;;;;;;;15.37;13.90;;;20.60;99.90;;;;;;4943340;29;20522;-65
2021/06/11 05:38:06;;;;;;;16.03;14.40;;;20.50;99.90;;;;;;4944354;29;20262;-66
2021/06/11 05:40:36;;;;;;;16.27;13.90;;;20.50;99.90;;;;;;4940871;29;20447;-65
2021/06/11 05:43:02;;;;;;;15.00;13.50;;;20.60;99.90;;;;;;4954071;28;20223;-65
2021/06/11 05:45:30;;;;;;;15.30;13.90;;;20.60;99.90;;;;;;4944087;28;20427;-65
2021/06/11 05:47:57;;;;;;;18.63;16.07;;;20.70;99.90;;;;;;4942363;29;20430;-64
2021/06/11 05:50:22;;;;;;;19.07;16.80;;;20.80;99.90;;;;;;4944255;28;20436;-69
2021/06/11 05:52:48;;;;;;;15.77;14.27;;;20.80;99.90;;;;;;4942046;29;20431;-68
2021/06/11 05:55:14;;;;;;;15.30;13.90;;;20.60;99.90;;;;;;4942350;28;20194;-64
2021/06/11 05:57:41;;;;;;;15.00;13.50;;;20.70;99.90;;;;;;4939979;29;20180;-67
2021/06/11 06:00:08;;;;;;;15.93;14.33;;;20.90;99.90;;;;;;4937904;28;20434;-66
2021/06/11 06:05:12;;;;;;;14.67;13.23;;;21.40;99.90;;;;;;4961527;28;20548;-81
2021/06/11 06:07:38;;;;;;;16.70;15.10;;;21.40;99.90;;;;;;4965872;28;20433;-80
2021/06/11 06:10:05;;;;;;;16.70;14.60;;;21.70;99.90;;;;;;4959457;28;20545;-82
2021/06/11 06:12:31;;;;;;;15.97;14.27;;;21.80;99.90;;;;;;4950102;28;20525;-82
2021/06/11 06:14:58;;;;;;;16.03;14.33;;;21.70;99.90;;;;;;4946592;28;21036;-81
2021/06/11 06:17:24;;;;;;;14.87;13.57;;;21.70;99.90;;;;;;4947252;29;20278;-79
2021/06/11 06:19:50;;;;;;;16.87;15.27;;;21.70;99.90;;;;;;4961950;28;20470;-83
2021/06/11 06:22:15;;;;;;;15.93;14.40;;;21.40;99.90;;;;;;4946575;28;20638;-82
2021/06/11 06:24:41;;;;;;;17.60;15.90;;;21.20;99.90;;;;;;4949239;29;20235;-82
2021/06/11 06:27:07;;;;;;;15.30;13.90;;;21.10;99.90;;;;;;4947936;28;20246;-81
2021/06/11 06:29:33;;;;;;;16.10;14.60;;;21.30;99.90;;;;;;4950901;29;20228;-84
2021/06/11 06:31:58;;;;;;;15.30;13.80;;;21.40;99.90;;;;;;4955262;28;20450;-84
2021/06/11 06:34:25;;;;;;;16.47;15.00;;;21.50;99.90;;;;;;4974040;28;20191;-80
2021/06/11 06:36:52;;;;;;;15.40;14.00;;;21.70;99.90;;;;;;4956542;28;20215;-81
2021/06/11 06:39:18;;;;;;;15.17;13.67;;;21.70;99.90;;;;;;4955607;28;20443;-81
2021/06/11 06:41:44;;;;;;;15.10;13.50;;;21.70;99.90;;;;;;4953960;29;20563;-81
2021/06/11 06:44:11;;;;;;;16.60;15.00;;;21.70;99.90;;;;;;4955078;28;20443;-82
2021/06/11 06:46:38;;;;;;;14.43;13.17;;;21.70;99.90;;;;;;4952503;28;20447;-79
2021/06/11 06:49:04;;;;;;;14.90;13.50;;;21.80;99.90;;;;;;4955370;29;20422;-81
2021/06/11 06:51:32;;;;;;;16.33;14.63;;;21.80;99.90;;;;;;4956203;28;20435;-82
2021/06/11 06:53:59;;;;;;;15.70;14.20;;;21.90;99.90;;;;;;4949040;28;20505;-82
2021/06/11 06:56:25;;;;;;;15.27;13.80;;;21.80;99.90;;;;;;4970498;28;20481;-80
2021/06/11 06:58:52;;;;;;;18.83;16.97;;;21.90;99.90;;;;;;4949802;28;20449;-83
2021/06/11 07:01:18;;;;;;;16.50;14.90;;;21.80;99.90;;;;;;4951033;29;20499;-81
2021/06/11 07:03:44;;;;;;;17.93;15.30;;;21.90;99.90;;;;;;4957459;29;20458;-81
2021/06/11 07:06:09;;;;;;;16.23;14.83;;;22.00;99.90;;;;;;4957658;28;20431;-80
2021/06/11 07:08:35;;;;;;;15.60;14.20;;;22.00;99.90;;;;;;4955306;28;20281;-80
2021/06/11 07:11:01;;;;;;;17.63;14.70;;;22.00;99.90;;;;;;4954075;28;20274;-81
2021/06/11 07:13:31;;;;;;;15.73;14.27;;;22.20;99.90;;;;;;4952957;28;20195;-82
2021/06/11 07:15:57;;;;;;;16.80;14.50;;;22.10;99.90;;;;;;4956656;28;20436;-80
2021/06/11 07:18:23;;;;;;;16.20;14.50;;;22.10;99.90;;;;;;4952660;28;20439;-80
2021/06/11 07:20:48;;;;;;;16.50;14.90;;;22.10;99.90;;;;;;4950616;28;20443;-82
2021/06/11 07:23:14;;;;;;;17.00;15.40;;;22.20;99.90;;;;;;4948912;28;20191;-81
2021/06/11 07:25:40;;;;;;;15.63;14.23;;;22.10;99.90;;;;;;4950332;28;20211;-82
2021/06/11 07:28:05;;;;;;;17.63;15.93;;;22.20;99.90;;;;;;4948822;28;20229;-82
2021/06/11 07:30:31;;;;;;;16.63;14.93;;;22.30;99.90;;;;;;4953320;28;20203;-82
2021/06/11 07:32:57;;;;;;;16.43;14.90;;;22.30;99.90;;;;;;4950089;28;20203;-81
2021/06/11 07:35:23;;;;;;;19.47;15.40;;;22.40;99.90;;;;;;4946836;28;20481;-83
2021/06/11 07:37:49;;;;;;;15.70;14.20;;;22.50;99.90;;;;;;4961898;28;20436;-83
2021/06/11 07:40:15;;;;;;;17.00;15.30;;;22.50;99.90;;;;;;4945685;28;20219;-83
2021/06/11 07:42:41;;;;;;;17.70;16.00;;;22.60;99.90;;;;;;4958470;28;20219;-82
2021/06/11 07:45:08;;;;;;;17.30;15.60;;;22.50;99.90;;;;;;4948507;28;20199;-82
2021/06/11 07:47:34;;;;;;;16.90;15.10;;;22.60;99.90;;;;;;4946758;28;20562;-81
2021/06/11 07:50:00;;;;;;;16.93;15.33;;;22.60;99.90;;;;;;4949646;28;20481;-80
2021/06/11 07:52:25;;;;;;;19.67;15.67;;;22.70;99.90;;;;;;4945584;28;20482;-82
2021/06/11 07:54:51;;;;;;;17.00;14.90;;;22.80;99.90;;;;;;4958636;28;20206;-81
2021/06/11 07:57:17;;;;;;;17.83;16.00;;;22.90;99.90;;;;;;4944572;28;20195;-81
2021/06/11 07:59:42;;;;;;;18.43;16.37;;;23.00;99.90;;;;;;4947630;28;20801;-81
2021/06/11 08:02:10;;;;;;;17.17;15.37;;;23.20;99.90;;;;;;4945476;29;20227;-81
2021/06/11 08:04:35;;;;;;;16.50;15.00;;;23.30;99.90;;;;;;4948158;28;20663;-82
2021/06/11 08:07:01;;;;;;;17.53;15.73;;;23.40;99.90;;;;;;4962723;28;20544;-84
2021/06/11 08:09:29;;;;;;;16.43;14.80;;;23.40;99.90;;;;;;4936291;29;20200;-81
2021/06/11 08:11:55;;;;;;;15.33;13.93;;;23.40;99.90;;;;;;4953490;28;20199;-81
2021/06/11 08:14:22;;;;;;;15.80;14.23;;;23.50;99.90;;;;;;4950602;28;20462;-82
2021/06/11 08:16:50;;;;;;;18.20;14.30;;;23.50;99.90;;;;;;4953350;28;20415;-80
2021/06/11 08:19:16;;;;;;;16.17;14.50;;;23.70;99.90;;;;;;4937954;28;20670;-81
2021/06/11 08:21:42;;;;;;;15.37;13.97;;;23.70;99.90;;;;;;4956205;28;21445;-81
2021/06/11 08:24:08;;;;;;;14.90;13.50;;;23.70;99.90;;;;;;4952082;28;20647;-84
2021/06/11 08:26:36;;;;;;;17.90;15.03;;;23.60;99.90;;;;;;4951154;28;20258;-86
2021/06/11 08:29:02;;;;;;;16.90;15.33;;;23.60;99.90;;;;;;4952398;28;20431;-85
2021/06/11 08:31:28;;;;;;;15.80;14.20;;;23.60;99.90;;;;;;4949227;28;20449;-86
2021/06/11 08:33:54;;;;;;;16.50;14.80;;;23.70;99.90;;;;;;4952365;28;21052;-85
2021/06/11 08:36:19;;;;;;;15.33;13.90;;;23.80;99.90;;;;;;4952887;28;20331;-84
2021/06/11 08:38:45;;;;;;;13.97;12.63;;;23.80;99.90;;;;;;4950519;28;20488;-84
2021/06/11 08:41:13;;;;;;;20.43;18.43;;;24.00;99.90;;;;;;4954066;28;20235;-84
2021/06/11 08:43:39;;;;;;;16.60;14.50;;;24.10;99.90;;;;;;4968285;28;20192;-85
2021/06/11 08:46:07;;;;;;;14.37;13.07;;;24.10;99.90;;;;;;4949291;28;20462;-83
2021/06/11 08:48:33;;;;;;;14.63;13.33;;;24.30;99.90;;;;;;4964416;28;20450;-84
2021/06/11 08:50:59;;;;;;;13.80;12.50;;;24.50;99.90;;;;;;4969973;28;20451;-84
2021/06/11 08:53:25;;;;;;;16.00;14.60;;;24.50;99.90;;;;;;4947934;28;20453;-84
2021/06/11 08:55:52;;;;;;;19.87;15.17;;;24.50;99.90;;;;;;4952503;28;20480;-84
2021/06/11 08:58:18;;;;;;;15.17;13.63;;;24.50;99.90;;;;;;4972232;28;20463;-83
2021/06/11 09:00:43;;;;;;;13.97;12.77;;;24.70;99.90;;;;;;4956557;28;20466;-87
2021/06/11 09:03:16;;;;;;;14.90;13.40;;;24.80;99.90;;;;;;4961052;28;20502;-85
2021/06/11 09:06:12;;;;;;;15.40;14.00;;;24.80;99.90;;;;;;4958343;28;20206;-86
2021/06/11 09:08:38;;;;;;;13.87;12.57;;;24.80;99.90;;;;;;4961544;28;20965;-85
2021/06/11 09:11:18;;;;;;;13.07;11.87;;;24.90;99.90;;;;;;4959656;28;20542;-85
2021/06/11 09:13:47;;;;;;;13.67;12.43;;;24.80;99.90;;;;;;4960656;28;20183;-87
2021/06/11 09:16:17;;;;;;;15.10;13.70;;;24.70;99.90;;;;;;4976126;28;20439;-87
2021/06/11 09:18:49;;;;;;;13.03;11.93;;;24.70;99.90;;;;;;4960550;28;20416;-85
2021/06/11 09:21:36;;;;;;;16.73;15.13;;;24.70;99.90;;;;;;4959394;28;20473;-84
2021/06/11 09:24:27;;;;;;;12.97;11.33;;;24.90;99.90;;;;;;4953972;28;20829;-85
2021/06/11 09:26:59;;;;;;;14.50;13.03;;;24.80;99.90;;;;;;4958185;29;20525;-84
2021/06/11 09:29:37;;;;;;;13.10;11.90;;;24.80;99.90;;;;;;4952182;28;20470;-83
2021/06/11 09:32:23;;;;;;;13.77;12.53;;;24.80;99.90;;;;;;4968315;28;20450;-81
2021/06/11 09:35:09;;;;;;;13.40;11.90;;;24.80;99.90;;;;;;4950911;28;20455;-82
2021/06/11 09:37:38;;;;;;;13.90;12.70;;;24.80;99.90;;;;;;4952311;28;20459;-85
2021/06/11 09:40:10;;;;;;;13.10;11.90;;;24.80;99.90;;;;;;4949278;28;20525;-83
2021/06/11 09:42:44;;;;;;;13.43;12.20;;;24.90;99.90;;;;;;4962034;28;20514;-83
2021/06/11 09:45:12;;;;;;;12.37;11.37;;;25.10;99.90;;;;;;4951438;28;20434;-83
2021/06/11 09:47:40;;;;;;;11.80;10.70;;;25.20;99.90;;;;;;4961867;28;20645;-82
2021/06/11 09:50:10;;;;;;;12.23;11.13;;;25.30;99.90;;;;;;4949828;28;21077;-84
2021/06/11 09:52:54;;;;;;;10.80;9.90;;;25.20;99.90;;;;;;4949014;28;20451;-83
2021/06/11 09:55:27;;;;;;;11.10;10.00;;;25.30;99.90;;;;;;4946289;28;20533;-83
2021/06/11 09:58:12;;;;;;;11.37;10.23;;;25.30;99.90;;;;;;4948508;28;20491;-82
2021/06/11 10:01:03;;;;;;;11.23;10.23;;;25.40;99.90;;;;;;4948737;28;20471;-82
2021/06/11 10:03:33;;;;;;;12.30;11.10;;;25.50;99.90;;;;;;4943663;28;20847;-81
2021/06/11 10:06:01;;;;;;;12.67;11.67;;;25.50;99.90;;;;;;4957560;28;20448;-82
2021/06/11 10:08:27;;;;;;;11.63;10.53;;;25.60;99.90;;;;;;4948116;29;20488;-82
2021/06/11 10:11:14;;;;;;;11.03;10.03;;;25.60;99.90;;;;;;4943390;28;20522;-82
2021/06/11 10:13:40;;;;;;;11.70;10.50;;;25.60;99.90;;;;;;4945019;29;20884;-83
2021/06/11 10:16:11;;;;;;;9.40;8.50;;;25.60;99.90;;;;;;4946610;28;20422;-81
2021/06/11 10:18:37;;;;;;;9.50;8.60;;;25.70;99.90;;;;;;4941165;28;20727;-81
2021/06/11 10:21:04;;;;;;;10.37;9.33;;;25.80;99.90;;;;;;4942598;28;20795;-80
2021/06/11 10:23:31;;;;;;;11.90;10.47;;;26.00;99.90;;;;;;4946507;28;20202;-82
2021/06/11 10:26:00;;;;;;;10.50;9.50;;;26.10;99.90;;;;;;4942480;28;20423;-81
2021/06/11 10:28:28;;;;;;;10.80;9.77;;;26.20;99.90;;;;;;4944555;28;20505;-82
2021/06/11 10:30:59;;;;;;;11.83;10.30;;;26.10;99.90;;;;;;4960731;28;20835;-79
2021/06/11 10:33:43;;;;;;;10.20;9.30;;;26.00;99.90;;;;;;4943933;28;20427;-80
2021/06/11 10:36:31;;;;;;;9.80;9.00;;;26.10;99.90;;;;;;4960363;28;20434;-79
2021/06/11 10:39:00;;;;;;;10.93;9.10;;;26.30;99.90;;;;;;4959732;28;20538;-80
2021/06/11 10:41:26;;;;;;;9.13;8.37;;;26.50;99.90;;;;;;4938868;28;20470;-81
2021/06/11 10:43:53;;;;;;;12.23;9.07;;;26.40;99.90;;;;;;4946829;28;20844;-81
2021/06/11 10:46:26;;;;;;;8.83;8.00;;;26.40;99.90;;;;;;4943662;28;20443;-81
2021/06/11 10:49:07;;;;;;;9.30;8.50;;;26.60;99.90;;;;;;4944025;28;20448;-81
2021/06/11 10:51:48;;;;;;;9.50;8.00;;;26.70;99.90;;;;;;4943987;28;20431;-81
2021/06/11 10:54:20;;;;;;;8.87;7.87;;;26.70;99.90;;;;;;4944036;28;20537;-82
2021/06/11 10:57:11;;;;;;;10.30;9.40;;;26.90;99.90;;;;;;4957069;28;20462;-81
2021/06/11 10:59:43;;;;;;;10.70;9.20;;;27.00;99.90;;;;;;4943119;28;20479;-80
2021/06/11 11:02:09;;;;;;;7.80;7.03;;;27.10;99.90;;;;;;4943941;28;20917;-80
2021/06/11 11:04:37;;;;;;;7.67;7.07;;;27.10;99.90;;;;;;4942683;28;20545;-81
2021/06/11 11:07:36;;;;;;;8.87;7.90;;;27.00;99.90;;;;;;4955461;28;20424;-80
2021/06/11 11:10:10;;;;;;;9.83;8.93;;;27.10;99.90;;;;;;4941271;28;20467;-81
2021/06/11 11:13:01;;;;;;;9.27;8.37;;;27.10;99.90;;;;;;4940303;28;20678;-79
2021/06/11 11:15:38;;;;;;;9.87;8.87;;;27.20;99.90;;;;;;4955152;28;20431;-81
2021/06/11 11:18:24;;;;;;;8.17;7.47;;;27.30;99.90;;;;;;4942408;29;20523;-79
2021/06/11 11:20:52;;;;;;;7.40;6.83;;;27.40;99.20;;;;;;4943322;28;20454;-81
2021/06/11 11:23:20;;;;;;;6.37;5.80;;;27.60;97.90;;;;;;4913608;29;20902;-82
2021/06/11 11:25:47;;;;;;;8.57;7.63;;;27.70;98.00;;;;;;4938774;28;20530;-80
2021/06/11 11:28:14;;;;;;;8.90;8.20;;;27.90;97.90;;;;;;4937735;28;20442;-80
2021/06/11 11:30:42;;;;;;;6.70;6.10;;;28.10;96.90;;;;;;4943166;28;20451;-81
2021/06/11 11:33:08;;;;;;;7.13;6.30;;;28.30;95.20;;;;;;4933325;28;20529;-80
2021/06/11 11:35:37;;;;;;;9.40;8.70;;;28.40;94.20;;;;;;4938955;28;20452;-81
2021/06/11 11:38:05;;;;;;;8.67;7.37;;;28.50;94.40;;;;;;4923530;28;20459;-80
2021/06/11 11:40:31;;;;;;;6.83;6.27;;;28.80;94.70;;;;;;4920804;29;20564;-80
2021/06/11 11:43:00;;;;;;;8.23;7.43;;;28.90;92.80;;;;;;4936322;28;20470;-80
2021/06/11 11:45:27;;;;;;;8.53;7.93;;;29.00;92.20;;;;;;4923973;29;20582;-80
2021/06/11 11:47:54;;;;;;;6.50;6.00;;;29.30;90.30;;;;;;4937014;28;20445;-81
2021/06/11 11:50:21;;;;;;;5.43;5.00;;;29.40;87.60;;;;;;4937992;28;20556;-82
2021/06/11 11:52:47;;;;;;;6.90;6.40;;;29.70;86.00;;;;;;4938748;28;20454;-82
2021/06/11 11:55:13;;;;;;;6.37;5.77;;;29.90;85.60;;;;;;4922430;29;20443;-80
2021/06/11 11:57:41;;;;;;;5.60;5.20;;;30.40;83.20;;;;;;4940077;28;20489;-80
2021/06/11 12:00:08;;;;;;;5.90;5.40;;;30.80;79.10;;;;;;4956525;28;20463;-80
2021/06/11 12:02:34;;;;;;;11.67;5.27;;;31.10;78.40;;;;;;4940770;29;20501;-79
2021/06/11 12:05:00;;;;;;;5.10;4.70;;;31.90;74.60;;;;;;4942347;28;20466;-80
2021/06/11 12:07:26;;;;;;;6.60;4.20;;;33.10;68.90;;;;;;4939895;28;20191;-80
2021/06/11 12:09:53;;;;;;;6.33;5.83;;;35.30;64.00;;;;;;4944256;28;20208;-80
2021/06/11 12:12:19;;;;;;;5.37;4.93;;;37.10;58.40;;;;;;4958740;28;20448;-80
2021/06/11 12:14:45;;;;;;;4.67;4.27;;;39.00;54.20;;;;;;4941994;28;20474;-81
2021/06/11 12:17:11;;;;;;;4.10;3.80;;;40.40;49.20;;;;;;4939989;28;20964;-80
2021/06/11 12:19:37;;;;;;;4.27;3.97;;;41.10;44.30;;;;;;4937800;28;20215;-80
2021/06/11 12:22:03;;;;;;;3.83;3.53;;;40.80;42.80;;;;;;4942328;28;20215;-81
2021/06/11 12:24:29;;;;;;;4.40;4.10;;;40.30;41.10;;;;;;4943525;28;20193;-81
2021/06/11 12:26:55;;;;;;;4.10;3.80;;;40.30;41.70;;;;;;4942290;28;20541;-80
2021/06/11 12:29:21;;;;;;;3.80;3.60;;;41.30;40.90;;;;;;4940966;28;20462;-81
2021/06/11 12:31:51;;;;;;;3.70;3.50;;;42.00;39.30;;;;;;4940975;28;20658;-79
2021/06/11 12:34:17;;;;;;;3.80;3.50;;;42.90;37.50;;;;;;4943671;28;20187;-80
2021/06/11 12:36:44;;;;;;;4.10;3.80;;;43.60;37.20;;;;;;4941278;29;20439;-79
2021/06/11 12:39:11;;;;;;;3.63;3.43;;;43.60;36.90;;;;;;4942003;28;20438;-80
2021/06/11 12:41:38;;;;;;;3.27;3.07;;;43.90;34.50;;;;;;4942544;28;20478;-79
2021/06/11 12:44:16;;;;;;;3.47;3.20;;;44.10;33.40;;;;;;4945419;29;20426;-82
2021/06/11 12:46:50;;;;;;;3.33;3.13;;;44.50;32.90;;;;;;4941613;28;20617;-80
2021/06/11 12:49:17;;;;;;;3.20;3.00;;;44.90;31.70;;;;;;4956694;28;20879;-81